sensor_id;sensor_type;location;lat;lon;timestamp;P1;durP1;ratioP1;P2;durP2;ratioP2
1567;SDS011;777;47.156;8.326;2023-04-10T00:02:15;6.97;;;5.30;;
1567;SDS011;777;47.156;8.326;2023-04-10T00:04:43;5.93;;;5.32;;
1567;SDS011;777;47.156;8.326;2023-04-10T00:07:10;5.93;;;5.32;;
1567;SDS011;777;47.156;8.326;2023-04-10T00:09:38;6.30;;;5.50;;
1567;SDS011;777;47.156;8.326;2023-04-10T00:12:05;6.30;;;5.70;;
1567;SDS011;777;47.156;8.326;2023-04-10T00:14:32;7.60;;;5.57;;
1567;SDS011;777;47.156;8.326;2023-04-10T00:17:00;6.13;;;5.53;;
1567;SDS011;777;47.156;8.326;2023-04-10T00:19:28;7.47;;;6.53;;
1567;SDS011;777;47.156;8.326;2023-04-10T00:21:55;7.28;;;6.40;;
1567;SDS011;777;47.156;8.326;2023-04-10T00:24:22;6.97;;;6.22;;
1567;SDS011;777;47.156;8.326;2023-04-10T00:26:50;9.82;;;6.53;;
1567;SDS011;777;47.156;8.326;2023-04-10T00:29:17;5.88;;;5.30;;
1567;SDS011;777;47.156;8.326;2023-04-10T00:31:45;6.40;;;5.80;;
1567;SDS011;777;47.156;8.326;2023-04-10T00:34:13;6.28;;;5.55;;
1567;SDS011;777;47.156;8.326;2023-04-10T00:36:40;6.65;;;6.05;;
1567;SDS011;777;47.156;8.326;2023-04-10T00:39:07;7.25;;;5.72;;
1567;SDS011;777;47.156;8.326;2023-04-10T00:41:35;6.95;;;6.25;;
1567;SDS011;777;47.156;8.326;2023-04-10T00:44:02;6.63;;;6.03;;
1567;SDS011;777;47.156;8.326;2023-04-10T00:46:29;6.30;;;5.60;;
1567;SDS011;777;47.156;8.326;2023-04-10T00:48:57;6.80;;;6.13;;
1567;SDS011;777;47.156;8.326;2023-04-10T00:51:25;6.82;;;6.22;;
1567;SDS011;777;47.156;8.326;2023-04-10T00:53:52;6.53;;;5.82;;
1567;SDS011;777;47.156;8.326;2023-04-10T00:56:20;6.13;;;5.53;;
1567;SDS011;777;47.156;8.326;2023-04-10T00:58:48;7.55;;;6.75;;
1567;SDS011;777;47.156;8.326;2023-04-10T01:01:15;6.95;;;6.20;;
1567;SDS011;777;47.156;8.326;2023-04-10T01:03:43;9.65;;;7.18;;
1567;SDS011;777;47.156;8.326;2023-04-10T01:06:12;7.88;;;6.90;;
1567;SDS011;777;47.156;8.326;2023-04-10T01:08:49;8.73;;;7.07;;
1567;SDS011;777;47.156;8.326;2023-04-10T01:11:26;7.63;;;6.82;;
1567;SDS011;777;47.156;8.326;2023-04-10T01:14:01;7.80;;;6.70;;
1567;SDS011;777;47.156;8.326;2023-04-10T01:16:33;7.15;;;6.40;;
1567;SDS011;777;47.156;8.326;2023-04-10T01:19:06;8.57;;;6.93;;
1567;SDS011;777;47.156;8.326;2023-04-10T01:21:46;8.93;;;6.82;;
1567;SDS011;777;47.156;8.326;2023-04-10T01:24:23;7.13;;;6.43;;
1567;SDS011;777;47.156;8.326;2023-04-10T01:27:06;8.45;;;6.20;;
1567;SDS011;777;47.156;8.326;2023-04-10T01:29:40;9.90;;;7.20;;
1567;SDS011;777;47.156;8.326;2023-04-10T01:32:12;8.82;;;7.80;;
1567;SDS011;777;47.156;8.326;2023-04-10T01:34:42;7.82;;;6.78;;
1567;SDS011;777;47.156;8.326;2023-04-10T01:37:12;7.95;;;7.07;;
1567;SDS011;777;47.156;8.326;2023-04-10T01:39:42;7.57;;;6.78;;
1567;SDS011;777;47.156;8.326;2023-04-10T01:42:14;7.60;;;6.80;;
1567;SDS011;777;47.156;8.326;2023-04-10T01:44:45;7.85;;;6.75;;
1567;SDS011;777;47.156;8.326;2023-04-10T01:47:14;8.10;;;7.30;;
1567;SDS011;777;47.156;8.326;2023-04-10T01:49:42;7.97;;;7.18;;
1567;SDS011;777;47.156;8.326;2023-04-10T01:52:12;7.32;;;6.45;;
1567;SDS011;777;47.156;8.326;2023-04-10T01:54:44;9.60;;;7.43;;
1567;SDS011;777;47.156;8.326;2023-04-10T01:57:18;8.45;;;7.55;;
1567;SDS011;777;47.156;8.326;2023-04-10T01:59:56;7.32;;;6.60;;
1567;SDS011;777;47.156;8.326;2023-04-10T02:02:23;7.78;;;7.00;;
1567;SDS011;777;47.156;8.326;2023-04-10T02:04:50;7.43;;;6.72;;
1567;SDS011;777;47.156;8.326;2023-04-10T02:07:18;8.52;;;7.63;;
1567;SDS011;777;47.156;8.326;2023-04-10T02:09:53;8.05;;;7.25;;
1567;SDS011;777;47.156;8.326;2023-04-10T02:12:25;8.18;;;7.32;;
1567;SDS011;777;47.156;8.326;2023-04-10T02:14:58;7.57;;;6.82;;
1567;SDS011;777;47.156;8.326;2023-04-10T02:17:28;9.38;;;8.20;;
1567;SDS011;777;47.156;8.326;2023-04-10T02:19:57;10.25;;;7.47;;
1567;SDS011;777;47.156;8.326;2023-04-10T02:22:25;8.57;;;7.22;;
1567;SDS011;777;47.156;8.326;2023-04-10T02:24:53;8.18;;;7.38;;
1567;SDS011;777;47.156;8.326;2023-04-10T02:27:26;7.63;;;6.82;;
1567;SDS011;777;47.156;8.326;2023-04-10T02:29:54;7.13;;;6.43;;
1567;SDS011;777;47.156;8.326;2023-04-10T02:32:23;7.93;;;7.10;;
1567;SDS011;777;47.156;8.326;2023-04-10T02:34:50;8.48;;;7.68;;
1567;SDS011;777;47.156;8.326;2023-04-10T02:37:17;8.90;;;7.88;;
1567;SDS011;777;47.156;8.326;2023-04-10T02:39:44;8.27;;;7.43;;
1567;SDS011;777;47.156;8.326;2023-04-10T02:42:12;7.97;;;7.15;;
1567;SDS011;777;47.156;8.326;2023-04-10T02:44:39;7.03;;;6.32;;
1567;SDS011;777;47.156;8.326;2023-04-10T02:47:06;8.13;;;6.60;;
1567;SDS011;777;47.156;8.326;2023-04-10T02:49:37;7.32;;;6.60;;
1567;SDS011;777;47.156;8.326;2023-04-10T02:52:10;9.13;;;7.25;;
1567;SDS011;777;47.156;8.326;2023-04-10T02:54:37;7.70;;;6.90;;
1567;SDS011;777;47.156;8.326;2023-04-10T02:57:04;7.63;;;6.78;;
1567;SDS011;777;47.156;8.326;2023-04-10T02:59:32;9.85;;;7.55;;
1567;SDS011;777;47.156;8.326;2023-04-10T03:02:02;7.78;;;6.97;;
1567;SDS011;777;47.156;8.326;2023-04-10T03:04:32;8.82;;;7.70;;
1567;SDS011;777;47.156;8.326;2023-04-10T03:07:00;9.85;;;8.85;;
1567;SDS011;777;47.156;8.326;2023-04-10T03:09:27;10.00;;;8.23;;
1567;SDS011;777;47.156;8.326;2023-04-10T03:11:54;10.10;;;8.30;;
1567;SDS011;777;47.156;8.326;2023-04-10T03:14:22;10.02;;;8.73;;
1567;SDS011;777;47.156;8.326;2023-04-10T03:16:49;10.35;;;8.13;;
1567;SDS011;777;47.156;8.326;2023-04-10T03:19:16;8.60;;;7.70;;
1567;SDS011;777;47.156;8.326;2023-04-10T03:21:44;8.77;;;7.50;;
1567;SDS011;777;47.156;8.326;2023-04-10T03:24:13;10.52;;;7.38;;
1567;SDS011;777;47.156;8.326;2023-04-10T03:26:40;8.32;;;7.53;;
1567;SDS011;777;47.156;8.326;2023-04-10T03:29:07;7.93;;;7.13;;
1567;SDS011;777;47.156;8.326;2023-04-10T03:31:34;8.75;;;7.65;;
1567;SDS011;777;47.156;8.326;2023-04-10T03:34:01;9.68;;;8.10;;
1567;SDS011;777;47.156;8.326;2023-04-10T03:36:28;9.43;;;8.50;;
1567;SDS011;777;47.156;8.326;2023-04-10T03:38:55;8.98;;;8.05;;
1567;SDS011;777;47.156;8.326;2023-04-10T03:41:24;8.90;;;8.00;;
1567;SDS011;777;47.156;8.326;2023-04-10T03:43:51;9.77;;;8.52;;
1567;SDS011;777;47.156;8.326;2023-04-10T03:46:19;8.63;;;7.78;;
1567;SDS011;777;47.156;8.326;2023-04-10T03:48:46;9.23;;;8.13;;
1567;SDS011;777;47.156;8.326;2023-04-10T03:51:15;14.18;;;8.73;;
1567;SDS011;777;47.156;8.326;2023-04-10T03:53:44;8.85;;;7.75;;
1567;SDS011;777;47.156;8.326;2023-04-10T03:56:14;10.00;;;8.40;;
1567;SDS011;777;47.156;8.326;2023-04-10T03:58:44;10.07;;;8.95;;
1567;SDS011;777;47.156;8.326;2023-04-10T04:01:12;9.45;;;8.48;;
1567;SDS011;777;47.156;8.326;2023-04-10T04:03:54;9.02;;;7.35;;
1567;SDS011;777;47.156;8.326;2023-04-10T04:06:41;9.07;;;8.05;;
1567;SDS011;777;47.156;8.326;2023-04-10T04:09:44;8.90;;;8.00;;
1567;SDS011;777;47.156;8.326;2023-04-10T04:12:40;9.35;;;7.63;;
1567;SDS011;777;47.156;8.326;2023-04-10T04:15:21;9.65;;;8.48;;
1567;SDS011;777;47.156;8.326;2023-04-10T04:17:53;9.40;;;8.40;;
1567;SDS011;777;47.156;8.326;2023-04-10T04:20:42;10.57;;;9.00;;
1567;SDS011;777;47.156;8.326;2023-04-10T04:23:29;10.23;;;8.82;;
1567;SDS011;777;47.156;8.326;2023-04-10T04:26:16;11.52;;;8.70;;
1567;SDS011;777;47.156;8.326;2023-04-10T04:29:09;11.95;;;8.73;;
1567;SDS011;777;47.156;8.326;2023-04-10T04:31:46;9.70;;;8.68;;
1567;SDS011;777;47.156;8.326;2023-04-10T04:34:33;9.63;;;8.63;;
1567;SDS011;777;47.156;8.326;2023-04-10T04:37:26;8.48;;;7.63;;
1567;SDS011;777;47.156;8.326;2023-04-10T04:40:14;10.18;;;8.15;;
1567;SDS011;777;47.156;8.326;2023-04-10T04:43:01;9.32;;;8.35;;
1567;SDS011;777;47.156;8.326;2023-04-10T04:45:47;10.20;;;9.02;;
1567;SDS011;777;47.156;8.326;2023-04-10T04:48:37;9.95;;;8.82;;
1567;SDS011;777;47.156;8.326;2023-04-10T04:51:19;10.68;;;9.10;;
1567;SDS011;777;47.156;8.326;2023-04-10T04:53:50;10.63;;;8.40;;
1567;SDS011;777;47.156;8.326;2023-04-10T04:56:52;9.43;;;8.38;;
1567;SDS011;777;47.156;8.326;2023-04-10T04:59:46;10.60;;;8.23;;
1567;SDS011;777;47.156;8.326;2023-04-10T05:02:33;9.57;;;8.32;;
1567;SDS011;777;47.156;8.326;2023-04-10T05:05:33;9.73;;;8.55;;
1567;SDS011;777;47.156;8.326;2023-04-10T05:08:14;9.75;;;8.55;;
1567;SDS011;777;47.156;8.326;2023-04-10T05:11:20;11.82;;;8.75;;
1567;SDS011;777;47.156;8.326;2023-04-10T05:13:49;10.95;;;9.18;;
1567;SDS011;777;47.156;8.326;2023-04-10T05:16:31;10.15;;;8.32;;
1567;SDS011;777;47.156;8.326;2023-04-10T05:19:17;9.32;;;8.23;;
1567;SDS011;777;47.156;8.326;2023-04-10T05:22:20;9.98;;;8.85;;
1567;SDS011;777;47.156;8.326;2023-04-10T05:24:52;9.37;;;7.97;;
1567;SDS011;777;47.156;8.326;2023-04-10T05:27:23;10.75;;;9.38;;
1567;SDS011;777;47.156;8.326;2023-04-10T05:30:23;10.65;;;9.10;;
1567;SDS011;777;47.156;8.326;2023-04-10T05:33:26;10.15;;;9.05;;
1567;SDS011;777;47.156;8.326;2023-04-10T05:36:22;10.32;;;9.23;;
1567;SDS011;777;47.156;8.326;2023-04-10T05:39:01;10.68;;;9.02;;
1567;SDS011;777;47.156;8.326;2023-04-10T05:41:37;9.38;;;7.93;;
1567;SDS011;777;47.156;8.326;2023-04-10T05:44:19;8.73;;;7.53;;
1567;SDS011;777;47.156;8.326;2023-04-10T05:47:05;7.85;;;7.05;;
1567;SDS011;777;47.156;8.326;2023-04-10T05:49:38;8.90;;;6.80;;
1567;SDS011;777;47.156;8.326;2023-04-10T05:52:27;7.85;;;6.50;;
1567;SDS011;777;47.156;8.326;2023-04-10T05:55:21;7.55;;;6.20;;
1567;SDS011;777;47.156;8.326;2023-04-10T05:57:53;7.88;;;6.60;;
1567;SDS011;777;47.156;8.326;2023-04-10T06:00:38;6.93;;;5.90;;
1567;SDS011;777;47.156;8.326;2023-04-10T06:03:25;7.68;;;6.88;;
1567;SDS011;777;47.156;8.326;2023-04-10T06:05:58;8.13;;;7.07;;
1567;SDS011;777;47.156;8.326;2023-04-10T06:08:27;9.32;;;7.43;;
1567;SDS011;777;47.156;8.326;2023-04-10T06:10:55;9.15;;;7.53;;
1567;SDS011;777;47.156;8.326;2023-04-10T06:13:22;8.23;;;6.82;;
1567;SDS011;777;47.156;8.326;2023-04-10T06:15:53;7.80;;;6.90;;
1567;SDS011;777;47.156;8.326;2023-04-10T06:18:20;8.00;;;6.70;;
1567;SDS011;777;47.156;8.326;2023-04-10T06:20:47;9.73;;;7.22;;
1567;SDS011;777;47.156;8.326;2023-04-10T06:23:14;9.38;;;7.97;;
1567;SDS011;777;47.156;8.326;2023-04-10T06:25:42;9.55;;;7.45;;
1567;SDS011;777;47.156;8.326;2023-04-10T06:28:10;9.75;;;7.65;;
1567;SDS011;777;47.156;8.326;2023-04-10T06:30:38;9.25;;;7.40;;
1567;SDS011;777;47.156;8.326;2023-04-10T06:33:06;7.10;;;6.30;;
1567;SDS011;777;47.156;8.326;2023-04-10T06:35:37;6.85;;;6.15;;
1567;SDS011;777;47.156;8.326;2023-04-10T06:38:05;7.72;;;6.45;;
1567;SDS011;777;47.156;8.326;2023-04-10T06:40:34;6.50;;;5.90;;
1567;SDS011;777;47.156;8.326;2023-04-10T06:43:01;5.95;;;5.43;;
1567;SDS011;777;47.156;8.326;2023-04-10T06:45:35;6.17;;;5.57;;
1567;SDS011;777;47.156;8.326;2023-04-10T06:48:02;5.80;;;5.15;;
1567;SDS011;777;47.156;8.326;2023-04-10T06:50:29;5.68;;;5.05;;
1567;SDS011;777;47.156;8.326;2023-04-10T06:52:56;4.93;;;4.43;;
1567;SDS011;777;47.156;8.326;2023-04-10T06:55:24;5.53;;;5.03;;
1567;SDS011;777;47.156;8.326;2023-04-10T06:57:51;5.28;;;4.78;;
1567;SDS011;777;47.156;8.326;2023-04-10T07:00:19;5.32;;;4.47;;
1567;SDS011;777;47.156;8.326;2023-04-10T07:02:47;5.70;;;5.00;;
1567;SDS011;777;47.156;8.326;2023-04-10T07:05:14;4.55;;;4.15;;
1567;SDS011;777;47.156;8.326;2023-04-10T07:07:41;4.93;;;4.53;;
1567;SDS011;777;47.156;8.326;2023-04-10T07:10:09;5.78;;;4.63;;
1567;SDS011;777;47.156;8.326;2023-04-10T07:12:37;4.63;;;4.22;;
1567;SDS011;777;47.156;8.326;2023-04-10T07:15:04;4.47;;;4.07;;
1567;SDS011;777;47.156;8.326;2023-04-10T07:17:32;4.32;;;3.92;;
1567;SDS011;777;47.156;8.326;2023-04-10T07:20:01;4.03;;;3.72;;
1567;SDS011;777;47.156;8.326;2023-04-10T07:22:28;4.47;;;4.07;;
1567;SDS011;777;47.156;8.326;2023-04-10T07:24:56;5.03;;;4.53;;
1567;SDS011;777;47.156;8.326;2023-04-10T07:27:23;4.68;;;4.28;;
1567;SDS011;777;47.156;8.326;2023-04-10T07:29:52;5.32;;;4.43;;
1567;SDS011;777;47.156;8.326;2023-04-10T07:32:20;5.35;;;4.85;;
1567;SDS011;777;47.156;8.326;2023-04-10T07:34:47;5.28;;;4.78;;
1567;SDS011;777;47.156;8.326;2023-04-10T07:37:15;6.15;;;5.55;;
1567;SDS011;777;47.156;8.326;2023-04-10T07:39:43;5.57;;;5.07;;
1567;SDS011;777;47.156;8.326;2023-04-10T07:42:10;6.07;;;5.47;;
1567;SDS011;777;47.156;8.326;2023-04-10T07:44:37;6.55;;;5.80;;
1567;SDS011;777;47.156;8.326;2023-04-10T07:47:04;6.55;;;5.38;;
1567;SDS011;777;47.156;8.326;2023-04-10T07:49:31;6.50;;;5.78;;
1567;SDS011;777;47.156;8.326;2023-04-10T07:51:58;6.35;;;5.75;;
1567;SDS011;777;47.156;8.326;2023-04-10T07:54:26;6.00;;;5.38;;
1567;SDS011;777;47.156;8.326;2023-04-10T07:56:53;7.72;;;6.07;;
1567;SDS011;777;47.156;8.326;2023-04-10T07:59:20;6.00;;;5.40;;
1567;SDS011;777;47.156;8.326;2023-04-10T08:01:47;6.93;;;5.93;;
1567;SDS011;777;47.156;8.326;2023-04-10T08:04:14;5.93;;;5.38;;
1567;SDS011;777;47.156;8.326;2023-04-10T08:06:41;6.32;;;5.72;;
1567;SDS011;777;47.156;8.326;2023-04-10T08:09:08;7.40;;;6.18;;
1567;SDS011;777;47.156;8.326;2023-04-10T08:11:36;7.03;;;6.32;;
1567;SDS011;777;47.156;8.326;2023-04-10T08:14:03;6.93;;;6.22;;
1567;SDS011;777;47.156;8.326;2023-04-10T08:16:31;7.25;;;6.55;;
1567;SDS011;777;47.156;8.326;2023-04-10T08:18:59;7.43;;;6.72;;
1567;SDS011;777;47.156;8.326;2023-04-10T08:21:27;7.00;;;6.40;;
1567;SDS011;777;47.156;8.326;2023-04-10T08:23:56;6.55;;;5.93;;
1567;SDS011;777;47.156;8.326;2023-04-10T08:26:24;6.82;;;6.13;;
1567;SDS011;777;47.156;8.326;2023-04-10T08:28:54;6.00;;;5.40;;
1567;SDS011;777;47.156;8.326;2023-04-10T08:31:22;6.75;;;6.05;;
1567;SDS011;777;47.156;8.326;2023-04-10T08:33:50;6.50;;;5.88;;
1567;SDS011;777;47.156;8.326;2023-04-10T08:36:18;6.32;;;5.72;;
1567;SDS011;777;47.156;8.326;2023-04-10T08:38:45;6.40;;;5.72;;
1567;SDS011;777;47.156;8.326;2023-04-10T08:41:13;6.03;;;5.40;;
1567;SDS011;777;47.156;8.326;2023-04-10T08:43:41;5.20;;;4.70;;
1567;SDS011;777;47.156;8.326;2023-04-10T08:46:11;5.15;;;4.65;;
1567;SDS011;777;47.156;8.326;2023-04-10T08:48:39;5.32;;;4.82;;
1567;SDS011;777;47.156;8.326;2023-04-10T08:51:12;4.97;;;4.47;;
1567;SDS011;777;47.156;8.326;2023-04-10T08:53:42;4.57;;;4.18;;
1567;SDS011;777;47.156;8.326;2023-04-10T08:56:11;5.35;;;4.53;;
1567;SDS011;777;47.156;8.326;2023-04-10T08:58:39;5.57;;;4.95;;
1567;SDS011;777;47.156;8.326;2023-04-10T09:01:06;4.68;;;4.28;;
1567;SDS011;777;47.156;8.326;2023-04-10T09:03:37;5.40;;;4.70;;
1567;SDS011;777;47.156;8.326;2023-04-10T09:06:04;4.93;;;4.50;;
1567;SDS011;777;47.156;8.326;2023-04-10T09:08:32;5.03;;;4.53;;
1567;SDS011;777;47.156;8.326;2023-04-10T09:11:00;5.55;;;5.05;;
1567;SDS011;777;47.156;8.326;2023-04-10T09:13:33;6.40;;;4.95;;
1567;SDS011;777;47.156;8.326;2023-04-10T09:16:02;5.60;;;4.80;;
1567;SDS011;777;47.156;8.326;2023-04-10T09:18:47;5.30;;;4.85;;
1567;SDS011;777;47.156;8.326;2023-04-10T09:21:16;5.30;;;4.80;;
1567;SDS011;777;47.156;8.326;2023-04-10T09:23:46;6.80;;;5.10;;
1567;SDS011;777;47.156;8.326;2023-04-10T09:26:24;5.00;;;4.50;;
1567;SDS011;777;47.156;8.326;2023-04-10T09:28:56;5.40;;;4.80;;
1567;SDS011;777;47.156;8.326;2023-04-10T09:31:26;5.20;;;4.70;;
1567;SDS011;777;47.156;8.326;2023-04-10T09:34:07;5.50;;;5.00;;
1567;SDS011;777;47.156;8.326;2023-04-10T09:36:38;6.18;;;5.28;;
1567;SDS011;777;47.156;8.326;2023-04-10T09:39:06;5.40;;;4.72;;
1567;SDS011;777;47.156;8.326;2023-04-10T09:41:35;6.15;;;4.60;;
1567;SDS011;777;47.156;8.326;2023-04-10T09:44:13;5.50;;;4.65;;
1567;SDS011;777;47.156;8.326;2023-04-10T09:46:42;5.53;;;4.70;;
1567;SDS011;777;47.156;8.326;2023-04-10T09:49:11;5.70;;;5.20;;
1567;SDS011;777;47.156;8.326;2023-04-10T09:51:38;5.45;;;4.95;;
1567;SDS011;777;47.156;8.326;2023-04-10T09:54:07;5.80;;;5.30;;
1567;SDS011;777;47.156;8.326;2023-04-10T09:56:35;5.55;;;5.03;;
1567;SDS011;777;47.156;8.326;2023-04-10T09:59:05;5.57;;;5.07;;
1567;SDS011;777;47.156;8.326;2023-04-10T10:01:33;6.03;;;5.43;;
1567;SDS011;777;47.156;8.326;2023-04-10T10:04:02;5.53;;;5.00;;
1567;SDS011;777;47.156;8.326;2023-04-10T10:06:32;6.10;;;5.13;;
1567;SDS011;777;47.156;8.326;2023-04-10T10:09:00;5.22;;;4.30;;
1567;SDS011;777;47.156;8.326;2023-04-10T10:11:28;5.10;;;4.70;;
1567;SDS011;777;47.156;8.326;2023-04-10T10:13:59;5.70;;;4.45;;
1567;SDS011;777;47.156;8.326;2023-04-10T10:16:31;5.30;;;4.80;;
1567;SDS011;777;47.156;8.326;2023-04-10T10:19:03;4.97;;;4.40;;
1567;SDS011;777;47.156;8.326;2023-04-10T10:21:39;4.82;;;4.30;;
1567;SDS011;777;47.156;8.326;2023-04-10T10:24:09;5.57;;;4.40;;
1567;SDS011;777;47.156;8.326;2023-04-10T10:26:38;4.50;;;4.10;;
1567;SDS011;777;47.156;8.326;2023-04-10T10:29:06;4.75;;;4.35;;
1567;SDS011;777;47.156;8.326;2023-04-10T10:31:35;5.03;;;4.60;;
1567;SDS011;777;47.156;8.326;2023-04-10T10:34:03;4.55;;;4.15;;
1567;SDS011;777;47.156;8.326;2023-04-10T10:36:32;4.45;;;3.78;;
1567;SDS011;777;47.156;8.326;2023-04-10T10:39:04;4.40;;;4.00;;
1567;SDS011;777;47.156;8.326;2023-04-10T10:41:48;4.47;;;4.07;;
1567;SDS011;777;47.156;8.326;2023-04-10T10:44:25;3.75;;;3.45;;
1567;SDS011;777;47.156;8.326;2023-04-10T10:47:03;4.47;;;4.07;;
1567;SDS011;777;47.156;8.326;2023-04-10T10:49:52;4.35;;;3.95;;
1567;SDS011;777;47.156;8.326;2023-04-10T10:55:28;4.20;;;3.65;;
1567;SDS011;777;47.156;8.326;2023-04-10T10:58:01;4.28;;;3.70;;
1567;SDS011;777;47.156;8.326;2023-04-10T11:03:31;3.67;;;3.38;;
1567;SDS011;777;47.156;8.326;2023-04-10T11:05:59;4.40;;;4.00;;
1567;SDS011;777;47.156;8.326;2023-04-10T11:08:34;5.85;;;3.40;;
1567;SDS011;777;47.156;8.326;2023-04-10T11:11:19;3.65;;;3.35;;
1567;SDS011;777;47.156;8.326;2023-04-10T11:16:43;3.33;;;3.03;;
1567;SDS011;777;47.156;8.326;2023-04-10T11:19:12;3.17;;;2.88;;
1567;SDS011;777;47.156;8.326;2023-04-10T11:22:03;3.40;;;3.10;;
1567;SDS011;777;47.156;8.326;2023-04-10T11:30:27;3.10;;;2.40;;
1567;SDS011;777;47.156;8.326;2023-04-10T11:32:55;2.58;;;2.38;;
1567;SDS011;777;47.156;8.326;2023-04-10T11:35:24;2.15;;;1.90;;
1567;SDS011;777;47.156;8.326;2023-04-10T11:38:06;1.98;;;1.77;;
1567;SDS011;777;47.156;8.326;2023-04-10T11:40:53;2.70;;;2.50;;
1567;SDS011;777;47.156;8.326;2023-04-10T11:43:22;3.05;;;2.60;;
1567;SDS011;777;47.156;8.326;2023-04-10T11:45:49;2.83;;;2.50;;
1567;SDS011;777;47.156;8.326;2023-04-10T11:48:25;2.92;;;2.53;;
1567;SDS011;777;47.156;8.326;2023-04-10T11:50:53;3.78;;;2.60;;
1567;SDS011;777;47.156;8.326;2023-04-10T11:53:20;2.40;;;2.20;;
1567;SDS011;777;47.156;8.326;2023-04-10T11:55:48;2.83;;;2.05;;
1567;SDS011;777;47.156;8.326;2023-04-10T11:58:23;3.28;;;2.70;;
1567;SDS011;777;47.156;8.326;2023-04-10T12:00:55;2.85;;;2.65;;
1567;SDS011;777;47.156;8.326;2023-04-10T12:03:35;2.60;;;2.40;;
1567;SDS011;777;47.156;8.326;2023-04-10T12:06:05;2.65;;;2.30;;
1567;SDS011;777;47.156;8.326;2023-04-10T12:08:35;4.22;;;2.35;;
1567;SDS011;777;47.156;8.326;2023-04-10T12:11:03;2.60;;;2.40;;
1567;SDS011;777;47.156;8.326;2023-04-10T12:13:31;2.70;;;2.50;;
1567;SDS011;777;47.156;8.326;2023-04-10T12:15:59;3.30;;;3.00;;
1567;SDS011;777;47.156;8.326;2023-04-10T12:18:27;2.92;;;2.63;;
1567;SDS011;777;47.156;8.326;2023-04-10T12:20:55;3.50;;;3.20;;
1567;SDS011;777;47.156;8.326;2023-04-10T12:23:23;2.22;;;2.03;;
1567;SDS011;777;47.156;8.326;2023-04-10T12:25:53;3.00;;;2.70;;
1567;SDS011;777;47.156;8.326;2023-04-10T12:28:34;2.60;;;2.30;;
1567;SDS011;777;47.156;8.326;2023-04-10T12:31:01;2.90;;;2.60;;
1567;SDS011;777;47.156;8.326;2023-04-10T12:33:29;2.88;;;2.60;;
1567;SDS011;777;47.156;8.326;2023-04-10T12:35:56;3.03;;;2.78;;
1567;SDS011;777;47.156;8.326;2023-04-10T12:38:36;3.08;;;2.50;;
1567;SDS011;777;47.156;8.326;2023-04-10T12:41:04;3.90;;;2.45;;
1567;SDS011;777;47.156;8.326;2023-04-10T12:43:34;2.75;;;2.55;;
1567;SDS011;777;47.156;8.326;2023-04-10T12:46:01;4.30;;;3.20;;
1567;SDS011;777;47.156;8.326;2023-04-10T12:48:30;2.85;;;2.65;;
1567;SDS011;777;47.156;8.326;2023-04-10T12:50:57;3.70;;;3.40;;
1567;SDS011;777;47.156;8.326;2023-04-10T12:53:25;2.90;;;2.70;;
1567;SDS011;777;47.156;8.326;2023-04-10T12:55:59;2.53;;;2.33;;
1567;SDS011;777;47.156;8.326;2023-04-10T12:58:28;3.03;;;2.70;;
1567;SDS011;777;47.156;8.326;2023-04-10T13:00:58;4.15;;;3.78;;
1567;SDS011;777;47.156;8.326;2023-04-10T13:05:56;4.82;;;3.53;;
1567;SDS011;777;47.156;8.326;2023-04-10T13:08:23;3.55;;;3.10;;
1567;SDS011;777;47.156;8.326;2023-04-10T13:10:50;4.88;;;4.38;;
1567;SDS011;777;47.156;8.326;2023-04-10T13:13:19;4.50;;;4.07;;
1567;SDS011;777;47.156;8.326;2023-04-10T13:15:46;3.13;;;2.85;;
1567;SDS011;777;47.156;8.326;2023-04-10T13:18:15;3.88;;;3.58;;
1567;SDS011;777;47.156;8.326;2023-04-10T13:20:42;3.85;;;3.55;;
1567;SDS011;777;47.156;8.326;2023-04-10T13:23:09;3.83;;;3.42;;
1567;SDS011;777;47.156;8.326;2023-04-10T13:25:37;4.00;;;3.47;;
1567;SDS011;777;47.156;8.326;2023-04-10T13:28:06;3.90;;;3.58;;
1567;SDS011;777;47.156;8.326;2023-04-10T13:30:35;3.58;;;3.28;;
1567;SDS011;777;47.156;8.326;2023-04-10T13:33:03;3.28;;;2.97;;
1567;SDS011;777;47.156;8.326;2023-04-10T13:35:31;4.20;;;2.80;;
1567;SDS011;777;47.156;8.326;2023-04-10T13:37:59;3.45;;;3.15;;
1567;SDS011;777;47.156;8.326;2023-04-10T13:40:26;3.70;;;3.40;;
1567;SDS011;777;47.156;8.326;2023-04-10T13:42:53;3.50;;;3.20;;
1567;SDS011;777;47.156;8.326;2023-04-10T13:45:20;3.38;;;3.10;;
1567;SDS011;777;47.156;8.326;2023-04-10T13:47:48;3.60;;;2.97;;
1567;SDS011;777;47.156;8.326;2023-04-10T13:50:15;3.28;;;2.97;;
1567;SDS011;777;47.156;8.326;2023-04-10T13:52:43;3.42;;;3.13;;
1567;SDS011;777;47.156;8.326;2023-04-10T13:55:10;4.18;;;2.80;;
1567;SDS011;777;47.156;8.326;2023-04-10T13:57:37;3.05;;;2.80;;
1567;SDS011;777;47.156;8.326;2023-04-10T14:00:05;3.10;;;2.80;;
1567;SDS011;777;47.156;8.326;2023-04-10T14:02:40;2.60;;;2.40;;
1567;SDS011;777;47.156;8.326;2023-04-10T14:05:07;3.00;;;2.70;;
1567;SDS011;777;47.156;8.326;2023-04-10T14:07:35;3.58;;;3.03;;
1567;SDS011;777;47.156;8.326;2023-04-10T14:10:04;2.78;;;2.58;;
1567;SDS011;777;47.156;8.326;2023-04-10T14:12:32;3.50;;;2.50;;
1567;SDS011;777;47.156;8.326;2023-04-10T14:14:59;3.03;;;2.22;;
1567;SDS011;777;47.156;8.326;2023-04-10T14:17:26;2.20;;;2.00;;
1567;SDS011;777;47.156;8.326;2023-04-10T14:19:53;2.53;;;2.30;;
1567;SDS011;777;47.156;8.326;2023-04-10T14:22:20;2.30;;;2.10;;
1567;SDS011;777;47.156;8.326;2023-04-10T14:24:47;2.78;;;2.10;;
1567;SDS011;777;47.156;8.326;2023-04-10T14:27:16;2.88;;;2.60;;
1567;SDS011;777;47.156;8.326;2023-04-10T14:29:43;2.80;;;2.50;;
1567;SDS011;777;47.156;8.326;2023-04-10T14:32:10;3.03;;;2.50;;
1567;SDS011;777;47.156;8.326;2023-04-10T14:34:37;2.47;;;2.00;;
1567;SDS011;777;47.156;8.326;2023-04-10T14:37:04;2.50;;;2.30;;
1567;SDS011;777;47.156;8.326;2023-04-10T14:39:31;2.50;;;2.30;;
1567;SDS011;777;47.156;8.326;2023-04-10T14:41:59;2.55;;;1.90;;
1567;SDS011;777;47.156;8.326;2023-04-10T14:44:29;3.13;;;2.60;;
1567;SDS011;777;47.156;8.326;2023-04-10T14:46:56;3.55;;;2.80;;
1567;SDS011;777;47.156;8.326;2023-04-10T14:49:23;2.88;;;2.58;;
1567;SDS011;777;47.156;8.326;2023-04-10T14:51:50;2.78;;;2.53;;
1567;SDS011;777;47.156;8.326;2023-04-10T14:54:17;3.22;;;2.08;;
1567;SDS011;777;47.156;8.326;2023-04-10T14:56:46;2.78;;;2.25;;
1567;SDS011;777;47.156;8.326;2023-04-10T14:59:13;2.83;;;2.42;;
1567;SDS011;777;47.156;8.326;2023-04-10T15:01:42;3.05;;;2.45;;
1567;SDS011;777;47.156;8.326;2023-04-10T15:04:09;2.70;;;2.25;;
1567;SDS011;777;47.156;8.326;2023-04-10T15:06:37;2.90;;;2.50;;
1567;SDS011;777;47.156;8.326;2023-04-10T15:09:04;2.90;;;2.00;;
1567;SDS011;777;47.156;8.326;2023-04-10T15:11:31;2.10;;;1.90;;
1567;SDS011;777;47.156;8.326;2023-04-10T15:13:58;2.40;;;2.00;;
1567;SDS011;777;47.156;8.326;2023-04-10T15:16:26;2.67;;;2.00;;
1567;SDS011;777;47.156;8.326;2023-04-10T15:18:54;2.20;;;2.00;;
1567;SDS011;777;47.156;8.326;2023-04-10T15:21:22;2.45;;;1.98;;
1567;SDS011;777;47.156;8.326;2023-04-10T15:23:49;2.88;;;1.55;;
1567;SDS011;777;47.156;8.326;2023-04-10T15:26:16;2.58;;;1.70;;
1567;SDS011;777;47.156;8.326;2023-04-10T15:28:43;2.60;;;2.10;;
1567;SDS011;777;47.156;8.326;2023-04-10T15:31:10;2.38;;;1.90;;
1567;SDS011;777;47.156;8.326;2023-04-10T15:33:37;2.35;;;2.15;;
1567;SDS011;777;47.156;8.326;2023-04-10T15:36:06;2.38;;;2.17;;
1567;SDS011;777;47.156;8.326;2023-04-10T15:38:34;2.95;;;1.92;;
1567;SDS011;777;47.156;8.326;2023-04-10T15:41:06;2.85;;;2.38;;
1567;SDS011;777;47.156;8.326;2023-04-10T15:43:35;2.60;;;1.80;;
1567;SDS011;777;47.156;8.326;2023-04-10T15:46:02;2.20;;;1.90;;
1567;SDS011;777;47.156;8.326;2023-04-10T15:48:30;2.28;;;1.85;;
1567;SDS011;777;47.156;8.326;2023-04-10T15:50:57;1.83;;;1.65;;
1567;SDS011;777;47.156;8.326;2023-04-10T15:53:29;3.65;;;2.05;;
1567;SDS011;777;47.156;8.326;2023-04-10T15:55:56;2.60;;;1.90;;
1567;SDS011;777;47.156;8.326;2023-04-10T15:58:23;2.40;;;1.70;;
1567;SDS011;777;47.156;8.326;2023-04-10T16:00:51;1.98;;;1.75;;
1567;SDS011;777;47.156;8.326;2023-04-10T16:03:18;2.35;;;1.60;;
1567;SDS011;777;47.156;8.326;2023-04-10T16:05:45;3.25;;;1.42;;
1567;SDS011;777;47.156;8.326;2023-04-10T16:08:12;1.70;;;1.50;;
1567;SDS011;777;47.156;8.326;2023-04-10T16:10:41;2.15;;;1.50;;
1567;SDS011;777;47.156;8.326;2023-04-10T16:13:07;2.17;;;1.73;;